The Pas Airport
CYQD : now visible

Airfield :











YOU CAN JOIN US ON...

 
LOGIN :

Register | Disclaimer

   EN    FR    IT 

 









Legend :    VFR   Marginal VFR   IFR   Intensive IFR   Very Intensive IFR
Visi :
Ceiling :
>= 8 km
>= 3000ft
5 to 8 km
1000 to 3000 ft
1500m to 5 km
500 to 1000 ft
800 to 1500m
200 to 500 ft
< 800m
< 200 ft
Symbols :   Thunderstorms  Fog  Heavy snow  Heavy precipitations  Wind > 20 kt






- Airport Elevation : 887 ft
- IATA code : YQD


CYQD - The Pas

CURRENT METAR :
  • 210000Z AUTO 19008G15KT 9SM CLR 03/M09 A2971 RMK SLP080

EXPIRED METARs :
  • 202300Z AUTO 22015G23KT 9SM CLR 04/M09 A2974 RMK SLP090
  • 202200Z AUTO 23012G32KT 9SM CLR 04/M09 A2977 RMK SLP102

TAF TAF CYQD
Valid from the 20 at 19:00 until the 21 at 07:00 UTC


201838Z 2019/2107 24015G25KT P6SM SKC RMK FCST BASED ON AUTO OBS. NXT FCST BY 210100Z



MET'MAP, your aeronautical weather chart ! - Copyright ORBIFLY December 2007 - Disclaimer

ORBIFLY MET'MAP TEAM :

Programming & Development : Alexandra Zaïnal
Concept & original design : Baudouin d'Aumeries
Assistance for programming : Marc-Olivier Méhu
Technical & hardware support : Manuel Goepfert

Contact : metmap@orbifly.com




SOURCES & CREDITS :

   NOAA       Earth
Advisory